createdAt,value
2022-11-09T00:01:59.994Z,98065.91
2022-11-09T00:04:47.843Z,98059.09
2022-11-09T00:07:36.731Z,98055.06
2022-11-09T00:10:24.209Z,98057.72
2022-11-09T00:13:11.770Z,98052.88
2022-11-09T00:16:00.402Z,98051.63
2022-11-09T00:18:48.578Z,98047.63
2022-11-09T00:21:36.454Z,98038.31
2022-11-09T00:24:25.506Z,98027.31
2022-11-09T00:27:17.497Z,98029.28
2022-11-09T00:30:06.854Z,98015.94
2022-11-09T00:32:54.426Z,98016.22
2022-11-09T00:35:41.866Z,98016.50
2022-11-09T00:38:29.440Z,98021.28
2022-11-09T00:41:18.723Z,98011.94
2022-11-09T00:44:07.057Z,98013.22
2022-11-09T00:46:54.739Z,98027.69
2022-11-09T00:49:42.509Z,98021.03
2022-11-09T00:52:30.209Z,98024.91
2022-11-09T00:55:20.981Z,98022.72
2022-11-09T00:58:10.081Z,98027.47
2022-11-09T01:01:01.433Z,98027.03
2022-11-09T01:03:49.458Z,98023.88
2022-11-09T01:06:37.316Z,98020.78
2022-11-09T01:09:25.028Z,98027.22
2022-11-09T01:12:12.715Z,98020.69
2022-11-09T01:15:02.163Z,98020.25
2022-11-09T01:17:50.072Z,98023.88
2022-11-09T01:20:42.121Z,98012.63
2022-11-09T01:23:30.085Z,98012.06
2022-11-09T01:26:21.361Z,98018.59
2022-11-09T01:29:08.837Z,98012.50
2022-11-09T01:31:57.648Z,98013.72
2022-11-09T01:34:45.074Z,98012.06
2022-11-09T01:37:32.705Z,98019.84
2022-11-09T01:40:20.286Z,98009.44
2022-11-09T01:43:16.984Z,98011.94
2022-11-09T01:46:16.965Z,98003.03
2022-11-09T01:49:14.727Z,97998.59
2022-11-09T01:52:08.951Z,97998.97
2022-11-09T01:55:02.953Z,98002.47
2022-11-09T01:57:58.379Z,98008.59
2022-11-09T02:00:50.817Z,98009.53
2022-11-09T02:03:45.023Z,98012.75
2022-11-09T02:06:35.031Z,98003.03
2022-11-09T02:09:32.758Z,97998.56
2022-11-09T02:12:23.995Z,98005.78
2022-11-09T02:15:13.278Z,98000.91
2022-11-09T02:18:01.392Z,98002.59
2022-11-09T02:20:53.904Z,97999.66
2022-11-09T02:23:41.821Z,98000.38
2022-11-09T02:26:34.615Z,98009.38
2022-11-09T02:29:28.461Z,98010.75
2022-11-09T02:32:24.115Z,98009.38
2022-11-09T02:35:12.047Z,98021.63
2022-11-09T02:38:01.228Z,98026.19
2022-11-09T02:40:53.656Z,98032.47
2022-11-09T02:43:42.330Z,98030.06
2022-11-09T02:46:35.805Z,98020.19
2022-11-09T02:49:23.699Z,98018.53
2022-11-09T02:52:11.365Z,98014.63
2022-11-09T02:55:00.410Z,98016.13
2022-11-09T02:57:48.178Z,98016.81
2022-11-09T03:00:35.927Z,98015.94
2022-11-09T03:03:23.698Z,98029.56
2022-11-09T03:06:11.342Z,98019.44
2022-11-09T03:08:58.885Z,98019.66
2022-11-09T03:11:47.849Z,98031.22
2022-11-09T03:14:35.305Z,98024.66
2022-11-09T03:17:23.046Z,98032.59
2022-11-09T03:20:11.962Z,98039.59
2022-11-09T03:23:00.823Z,98031.34
2022-11-09T03:25:48.825Z,98037.03
2022-11-09T03:28:37.952Z,98040.09
2022-11-09T03:31:25.443Z,98049.53
2022-11-09T03:34:13.063Z,98078.78
2022-11-09T03:37:03.373Z,98083.81
2022-11-09T03:39:50.889Z,98066.13
2022-11-09T03:42:44.208Z,98066.47
2022-11-09T03:45:33.213Z,98060.19
2022-11-09T03:48:20.548Z,98061.97
2022-11-09T03:51:08.132Z,98046.50
2022-11-09T03:53:55.651Z,98044.72
2022-11-09T03:56:43.698Z,98043.31
2022-11-09T03:59:31.375Z,98039.78
2022-11-09T04:02:21.144Z,98050.53
2022-11-09T04:05:10.974Z,98050.81
2022-11-09T04:07:59.554Z,98053.31
2022-11-09T04:10:47.149Z,98056.63
2022-11-09T04:13:34.869Z,98059.13
2022-11-09T04:16:22.412Z,98055.53
2022-11-09T04:19:11.332Z,98062.47
2022-11-09T04:21:59.019Z,98059.97
2022-11-09T04:24:46.517Z,98052.03
2022-11-09T04:27:34.078Z,98055.81
2022-11-09T04:30:21.500Z,98058.84
2022-11-09T04:33:08.970Z,98046.59
2022-11-09T04:36:03.799Z,98052.72
2022-11-09T04:38:51.531Z,98066.78
2022-11-09T04:41:39.196Z,98057.97
2022-11-09T04:44:26.771Z,98052.50
2022-11-09T04:47:14.247Z,98043.06
2022-11-09T04:50:01.855Z,98056.59
2022-11-09T04:52:50.633Z,98068.84
2022-11-09T04:55:39.207Z,98071.63
2022-11-09T04:58:26.905Z,98070.22
2022-11-09T05:01:16.009Z,98075.13
2022-11-09T05:04:03.791Z,98075.78
2022-11-09T05:06:51.271Z,98071.06
2022-11-09T05:09:40.389Z,98077.34
2022-11-09T05:12:27.848Z,98079.69
2022-11-09T05:15:15.389Z,98085.44
2022-11-09T05:18:03.953Z,98091.69
2022-11-09T05:20:53.847Z,98098.09
2022-11-09T05:24:00.518Z,98092.50
2022-11-09T05:26:50.136Z,98104.47
2022-11-09T05:29:37.645Z,98106.41
2022-11-09T05:32:25.487Z,98103.59
2022-11-09T05:35:13.357Z,98108.06
2022-11-09T05:38:01.339Z,98118.56
2022-11-09T05:40:49.925Z,98125.94
2022-11-09T05:43:39.541Z,98128.44
2022-11-09T05:46:27.062Z,98137.53
2022-11-09T05:49:14.843Z,98145.84
2022-11-09T05:52:02.550Z,98140.25
2022-11-09T05:54:50.201Z,98133.97
2022-11-09T05:57:38.566Z,98126.16
2022-11-09T06:00:28.628Z,98136.75
2022-11-09T06:03:16.394Z,98135.09
2022-11-09T06:06:08.859Z,98129.91
2022-11-09T06:08:56.706Z,98126.44
2022-11-09T06:11:44.466Z,98137.88
2022-11-09T06:14:32.443Z,98133.38
2022-11-09T06:17:21.631Z,98123.06
2022-11-09T06:20:12.183Z,98135.38
2022-11-09T06:23:04.017Z,98141.31
2022-11-09T06:25:52.112Z,98142.16
2022-11-09T06:28:41.138Z,98152.91
2022-11-09T06:31:31.587Z,98151.25
2022-11-09T06:34:20.522Z,98159.22
2022-11-09T06:37:08.009Z,98154.88
2022-11-09T06:39:55.493Z,98155.00
2022-11-09T06:42:43.188Z,98158.50
2022-11-09T06:45:32.251Z,98155.72
2022-11-09T06:48:20.801Z,98151.41
2022-11-09T06:51:12.632Z,98160.88
2022-11-09T06:54:00.455Z,98166.88
2022-11-09T06:56:50.689Z,98169.38
2022-11-09T06:59:38.488Z,98173.53
2022-11-09T07:02:27.984Z,98176.19
2022-11-09T07:05:16.254Z,98167.38
2022-11-09T07:08:06.374Z,98175.03
2022-11-09T07:10:54.075Z,98176.84
2022-11-09T07:13:41.798Z,98177.84
2022-11-09T07:16:29.496Z,98174.66
2022-11-09T07:19:16.955Z,98185.56
2022-11-09T07:22:04.759Z,98180.25
2022-11-09T07:24:53.928Z,98175.75
2022-11-09T07:27:41.623Z,98180.97
2022-11-09T07:30:29.379Z,98182.66
2022-11-09T07:33:19.642Z,98191.56
2022-11-09T07:36:08.185Z,98201.06
2022-11-09T07:38:56.626Z,98193.25
2022-11-09T07:41:48.460Z,98196.44
2022-11-09T07:44:36.339Z,98193.50
2022-11-09T07:47:24.171Z,98195.00
2022-11-09T07:50:12.426Z,98196.41
2022-11-09T07:53:02.274Z,98193.44
2022-11-09T07:55:59.229Z,98198.47
2022-11-09T07:58:50.924Z,98190.09
2022-11-09T08:01:38.913Z,98189.34
2022-11-09T08:04:27.340Z,98199.13
2022-11-09T08:07:40.545Z,98196.03
2022-11-09T08:10:30.154Z,98201.19
2022-11-09T08:13:18.623Z,98200.34
2022-11-09T08:16:10.046Z,98219.75
2022-11-09T08:18:57.993Z,98220.72
2022-11-09T08:21:45.609Z,98222.09
2022-11-09T08:24:33.431Z,98215.66
2022-11-09T08:27:22.763Z,98223.75
2022-11-09T08:30:18.212Z,98227.41
2022-11-09T08:33:07.528Z,98223.75
2022-11-09T08:35:55.257Z,98213.69
2022-11-09T08:38:44.459Z,98221.50
2022-11-09T08:41:33.846Z,98221.22
2022-11-09T08:44:22.511Z,98222.88
2022-11-09T08:47:10.203Z,98234.16
2022-11-09T08:49:59.185Z,98235.53
2022-11-09T08:52:46.952Z,98242.50
2022-11-09T08:55:34.735Z,98243.41
2022-11-09T08:58:24.622Z,98233.34
2022-11-09T09:01:16.961Z,98239.34
2022-11-09T09:04:04.916Z,98242.50
2022-11-09T09:06:54.143Z,98241.09
2022-11-09T09:09:42.264Z,98240.78
2022-11-09T09:12:29.860Z,98246.41
2022-11-09T09:15:17.898Z,98261.03
2022-11-09T09:18:06.059Z,98268.00
2022-11-09T09:20:55.794Z,98262.41
2022-11-09T09:23:44.763Z,98275.66
2022-11-09T09:26:35.759Z,98253.59
2022-11-09T09:29:23.577Z,98259.75
2022-11-09T09:32:15.187Z,98261.56
2022-11-09T09:35:04.381Z,98258.38
2022-11-09T09:37:58.550Z,98266.09
2022-11-09T09:40:59.133Z,98251.56
2022-11-09T09:43:54.327Z,98251.25
2022-11-09T09:46:53.826Z,98249.97
2022-11-09T09:49:47.019Z,98234.69
2022-11-09T09:52:54.121Z,98233.03
2022-11-09T09:56:04.891Z,98228.78
2022-11-09T09:59:01.643Z,98239.19
2022-11-09T10:01:52.356Z,98236.53
2022-11-09T10:04:43.553Z,98237.03
2022-11-09T10:07:48.625Z,98230.84
2022-11-09T10:10:50.732Z,98225.53
2022-11-09T10:14:17.125Z,98212.47
2022-11-09T10:17:26.762Z,98213.84
2022-11-09T10:20:38.247Z,98217.13
2022-11-09T10:23:53.075Z,98213.97
2022-11-09T10:26:49.336Z,98209.69
2022-11-09T10:29:47.791Z,98210.50
2022-11-09T10:32:36.320Z,98198.75
2022-11-09T10:35:31.282Z,98193.31
2022-11-09T10:38:26.964Z,98181.41
2022-11-09T10:41:29.549Z,98189.56
2022-11-09T10:44:20.734Z,98192.94
2022-11-09T10:47:14.166Z,98200.78
2022-11-09T10:50:23.972Z,98196.47
2022-11-09T10:53:19.311Z,98199.97
2022-11-09T10:56:21.357Z,98192.72
2022-11-09T10:59:42.027Z,98184.09
2022-11-09T11:02:50.281Z,98178.16
2022-11-09T11:05:39.862Z,98176.00
2022-11-09T11:08:33.274Z,98158.16
2022-11-09T11:11:36.919Z,98163.81
2022-11-09T11:14:34.291Z,98155.00
2022-11-09T11:17:36.657Z,98150.81
2022-11-09T11:20:31.816Z,98150.63
2022-11-09T11:23:27.120Z,98150.78
2022-11-09T11:26:42.253Z,98140.19
2022-11-09T11:29:46.462Z,98141.66
2022-11-09T11:32:34.832Z,98134.09
2022-11-09T11:35:36.046Z,98139.56
2022-11-09T11:38:33.960Z,98138.84
2022-11-09T11:42:03.886Z,98126.06
2022-11-09T11:49:09.220Z,98126.53
2022-11-09T11:52:09.114Z,98125.56
2022-11-09T11:55:23.190Z,98112.53
2022-11-09T11:58:31.935Z,98107.66
2022-11-09T12:01:40.275Z,98101.41
2022-11-09T12:04:51.605Z,98096.34
2022-11-09T12:07:57.282Z,98093.88
2022-11-09T12:11:00.824Z,98089.00
2022-11-09T12:14:04.135Z,98087.34
2022-11-09T12:17:02.797Z,98080.53
2022-11-09T12:20:17.380Z,98077.09
2022-11-09T12:23:31.813Z,98077.09
2022-11-09T12:27:04.644Z,98064.44
2022-11-09T12:30:23.465Z,98070.50
2022-11-09T12:33:21.721Z,98060.53
2022-11-09T12:36:18.002Z,98065.16
2022-11-09T12:39:21.194Z,98067.25
2022-11-09T12:42:23.856Z,98068.47
2022-11-09T12:45:27.750Z,98064.09
2022-11-09T12:48:25.458Z,98064.97
2022-11-09T12:51:13.530Z,98071.22
2022-11-09T12:54:14.027Z,98070.88
2022-11-09T12:57:07.104Z,98069.84
2022-11-09T12:59:57.950Z,98070.50
2022-11-09T13:03:02.943Z,98069.09
2022-11-09T13:06:14.212Z,98076.59
2022-11-09T13:09:21.305Z,98066.66
2022-11-09T13:12:21.430Z,98069.84
2022-11-09T13:15:32.798Z,98063.72
2022-11-09T13:18:51.457Z,98055.88
2022-11-09T13:21:43.313Z,98068.28
2022-11-09T13:25:01.119Z,98070.72
2022-11-09T13:27:51.022Z,98058.59
2022-11-09T13:30:44.751Z,98061.06
2022-11-09T13:33:34.386Z,98068.72
2022-11-09T13:36:22.451Z,98068.44
2022-11-09T13:39:32.589Z,98069.69
2022-11-09T13:42:30.670Z,98073.28
2022-11-09T13:45:32.876Z,98073.28
2022-11-09T13:48:37.768Z,98081.13
2022-11-09T13:51:42.574Z,98075.63
2022-11-09T13:54:32.809Z,98084.72
2022-11-09T13:57:22.106Z,98092.53
2022-11-09T14:00:23.179Z,98099.16
2022-11-09T14:03:22.528Z,98090.56
2022-11-09T14:06:14.036Z,98089.34
2022-11-09T14:09:04.214Z,98089.72
2022-11-09T14:12:11.504Z,98097.38
2022-11-09T14:15:35.018Z,98100.03
2022-11-09T14:18:44.396Z,98100.22
2022-11-09T14:21:44.970Z,98102.28
2022-11-09T14:24:34.153Z,98104.50
2022-11-09T14:27:24.466Z,98103.69
2022-11-09T14:30:22.181Z,98103.22
2022-11-09T14:33:26.924Z,98103.78
2022-11-09T14:36:15.241Z,98101.50
2022-11-09T14:39:07.057Z,98108.06
2022-11-09T14:41:55.590Z,98106.78
2022-11-09T14:44:45.963Z,98116.19
2022-11-09T14:47:37.660Z,98114.25
2022-11-09T14:50:30.599Z,98113.81
2022-11-09T14:53:22.517Z,98115.19
2022-11-09T14:56:17.666Z,98116.75
2022-11-09T14:59:08.284Z,98116.50
2022-11-09T15:02:06.313Z,98116.56
2022-11-09T15:05:00.848Z,98125.34
2022-11-09T15:07:50.420Z,98120.53
2022-11-09T15:10:42.097Z,98125.63
2022-11-09T15:13:35.286Z,98131.53
2022-11-09T15:16:25.468Z,98124.22
2022-11-09T15:19:28.616Z,98139.94
2022-11-09T15:22:54.450Z,98134.69
2022-11-09T15:25:57.217Z,98131.09
2022-11-09T15:28:50.634Z,98139.81
2022-11-09T15:31:38.203Z,98144.88
2022-11-09T15:34:30.172Z,98144.78
2022-11-09T15:37:26.504Z,98148.34
2022-11-09T15:40:21.315Z,98149.06
2022-11-09T15:43:09.079Z,98153.47
2022-11-09T15:46:00.014Z,98148.00
2022-11-09T15:48:50.644Z,98145.03
2022-11-09T15:51:38.736Z,98151.09
2022-11-09T15:54:28.343Z,98160.81
2022-11-09T15:57:22.073Z,98152.50
2022-11-09T16:00:19.412Z,98152.38
2022-11-09T16:03:11.916Z,98160.09
2022-11-09T16:06:00.800Z,98159.78
2022-11-09T16:08:51.012Z,98168.31
2022-11-09T16:11:42.068Z,98165.53
2022-11-09T16:14:35.126Z,98164.22
2022-11-09T16:17:23.054Z,98170.22
2022-11-09T16:20:12.129Z,98168.88
2022-11-09T16:23:00.282Z,98179.09
2022-11-09T16:25:51.310Z,98182.25
2022-11-09T16:28:40.151Z,98175.63
2022-11-09T16:31:50.228Z,98179.63
2022-11-09T16:34:42.563Z,98191.63
2022-11-09T16:37:37.904Z,98188.34
2022-11-09T16:40:29.075Z,98191.34
2022-11-09T16:43:17.358Z,98197.00
2022-11-09T16:46:06.052Z,98202.69
2022-11-09T16:48:57.932Z,98203.03
2022-11-09T16:51:48.729Z,98197.19
2022-11-09T16:54:36.555Z,98207.22
2022-11-09T16:57:24.076Z,98210.22
2022-11-09T17:00:13.960Z,98208.88
2022-11-09T17:03:03.947Z,98210.06
2022-11-09T17:05:52.926Z,98216.56
2022-11-09T17:08:42.104Z,98223.03
2022-11-09T17:11:29.592Z,98223.41
2022-11-09T17:14:17.162Z,98234.41
2022-11-09T17:17:04.911Z,98234.75
2022-11-09T17:19:52.857Z,98235.09
2022-11-09T17:22:46.022Z,98237.91
2022-11-09T17:25:34.108Z,98235.59
2022-11-09T17:28:21.860Z,98237.56
2022-11-09T17:31:11.023Z,98238.75
2022-11-09T17:34:01.345Z,98241.75
2022-11-09T17:37:03.568Z,98243.72
2022-11-09T17:39:53.399Z,98245.75
2022-11-09T17:42:41.266Z,98253.06
2022-11-09T17:45:29.092Z,98257.72
2022-11-09T17:48:16.495Z,98262.41
2022-11-09T17:51:06.671Z,98253.72
2022-11-09T17:53:54.154Z,98271.75
2022-11-09T17:56:43.511Z,98276.38
2022-11-09T17:59:32.700Z,98271.22
2022-11-09T18:02:20.712Z,98268.88
2022-11-09T18:05:14.027Z,98281.53
2022-11-09T18:08:01.997Z,98275.38
2022-11-09T18:10:54.786Z,98285.34
2022-11-09T18:13:44.950Z,98294.69
2022-11-09T18:16:32.294Z,98300.66
2022-11-09T18:19:19.805Z,98305.66
2022-11-09T18:22:12.539Z,98309.34
2022-11-09T18:25:00.797Z,98305.16
2022-11-09T18:27:49.461Z,98309.66
2022-11-09T18:30:41.690Z,98313.13
2022-11-09T18:33:30.131Z,98319.16
2022-11-09T18:36:21.425Z,98317.81
2022-11-09T18:39:09.599Z,98332.47
2022-11-09T18:42:00.360Z,98329.28
2022-11-09T18:44:48.110Z,98333.13
2022-11-09T18:47:37.495Z,98341.28
2022-11-09T18:50:24.935Z,98339.44
2022-11-09T18:53:12.550Z,98347.25
2022-11-09T18:56:06.556Z,98347.59
2022-11-09T18:58:56.642Z,98352.91
2022-11-09T19:01:51.519Z,98356.59
2022-11-09T19:04:40.842Z,98362.44
2022-11-09T19:07:28.845Z,98363.28
2022-11-09T19:10:17.046Z,98362.56
2022-11-09T19:13:05.598Z,98348.94
2022-11-09T19:15:58.398Z,98349.09
2022-11-09T19:18:46.962Z,98346.25
2022-11-09T19:21:47.040Z,98361.41
2022-11-09T19:24:37.523Z,98352.59
2022-11-09T19:27:28.676Z,98360.91
2022-11-09T19:30:16.966Z,98361.91
2022-11-09T19:33:04.693Z,98362.59
2022-11-09T19:36:23.128Z,98362.41
2022-11-09T19:39:02.333Z,98365.22
2022-11-09T19:41:50.151Z,98361.41
2022-11-09T19:44:37.589Z,98366.88
2022-11-09T19:47:25.205Z,98369.38
2022-11-09T19:50:15.573Z,98364.91
2022-11-09T19:53:06.759Z,98369.72
2022-11-09T19:56:06.237Z,98368.88
2022-11-09T19:58:56.720Z,98367.38
2022-11-09T20:01:44.829Z,98369.53
2022-11-09T20:04:33.147Z,98382.84
2022-11-09T20:07:23.209Z,98375.19
2022-11-09T20:10:12.360Z,98375.19
2022-11-09T20:13:03.549Z,98388.09
2022-11-09T20:15:56.252Z,98392.75
2022-11-09T20:18:44.086Z,98393.72
2022-11-09T20:21:32.627Z,98392.06
2022-11-09T20:24:20.648Z,98397.94
2022-11-09T20:27:13.878Z,98404.69
2022-11-09T20:30:21.856Z,98412.53
2022-11-09T20:33:13.781Z,98414.00
2022-11-09T20:36:11.017Z,98418.84
2022-11-09T20:39:00.766Z,98415.47
2022-11-09T20:41:48.741Z,98421.66
2022-11-09T20:44:37.442Z,98421.97
2022-11-09T20:48:07.610Z,98430.59
2022-11-09T20:50:53.050Z,98438.25
2022-11-09T20:53:40.625Z,98441.22
2022-11-09T20:56:28.085Z,98448.22
2022-11-09T20:59:15.894Z,98441.88
2022-11-09T21:02:03.884Z,98445.53
2022-11-09T21:04:53.017Z,98455.03
2022-11-09T21:07:40.918Z,98460.81
2022-11-09T21:10:28.702Z,98462.97
2022-11-09T21:13:16.649Z,98469.81
2022-11-09T21:16:15.296Z,98474.97
2022-11-09T21:19:03.210Z,98473.81
2022-11-09T21:21:54.463Z,98485.63
2022-11-09T21:24:59.521Z,98481.16
2022-11-09T21:28:05.033Z,98483.84
2022-11-09T21:30:55.050Z,98481.19
2022-11-09T21:33:47.949Z,98485.22
2022-11-09T21:36:35.449Z,98491.03
2022-11-09T21:39:26.198Z,98492.16
2022-11-09T21:42:16.461Z,98494.50
2022-11-09T21:45:13.135Z,98499.00
2022-11-09T21:48:00.949Z,98497.16
2022-11-09T21:50:52.772Z,98500.66
2022-11-09T21:53:40.887Z,98489.53
2022-11-09T21:56:53.751Z,98497.84
2022-11-09T21:59:47.453Z,98496.84
2022-11-09T22:02:40.844Z,98503.16
2022-11-09T22:05:29.640Z,98502.31
2022-11-09T22:08:17.548Z,98506.84
2022-11-09T22:11:07.026Z,98518.44
2022-11-09T22:14:18.728Z,98515.78
2022-11-09T22:17:09.429Z,98508.66
2022-11-09T22:20:20.791Z,98522.13
2022-11-09T22:23:11.386Z,98519.75
2022-11-09T22:26:04.919Z,98523.78
2022-11-09T22:28:52.729Z,98531.56
2022-11-09T22:31:47.610Z,98536.03
2022-11-09T22:34:37.165Z,98538.00
2022-11-09T22:37:27.330Z,98532.38
2022-11-09T22:40:14.834Z,98535.03
2022-11-09T22:43:02.426Z,98540.00
2022-11-09T22:45:50.012Z,98534.69
2022-11-09T22:48:40.264Z,98540.66
2022-11-09T22:51:27.860Z,98544.28
2022-11-09T22:54:15.379Z,98543.97
2022-11-09T22:57:04.265Z,98555.22
2022-11-09T22:59:52.007Z,98558.03
2022-11-09T23:02:39.781Z,98557.19
2022-11-09T23:05:30.897Z,98564.50
2022-11-09T23:08:18.568Z,98572.88
2022-11-09T23:11:06.994Z,98582.44
2022-11-09T23:13:58.354Z,98579.94
2022-11-09T23:16:47.762Z,98581.09
2022-11-09T23:19:34.415Z,98589.88
2022-11-09T23:22:23.315Z,98582.22
2022-11-09T23:25:29.482Z,98582.50
2022-11-09T23:28:18.670Z,98606.59
2022-11-09T23:31:09.809Z,98604.66
2022-11-09T23:33:58.893Z,98605.63
2022-11-09T23:36:46.560Z,98603.28
2022-11-09T23:39:35.277Z,98619.25
2022-11-09T23:42:22.557Z,98617.53
2022-11-09T23:45:11.163Z,98627.53
2022-11-09T23:47:59.015Z,98616.03
2022-11-09T23:50:48.734Z,98620.50
2022-11-09T23:53:37.408Z,98633.13
2022-11-09T23:56:26.281Z,98629.94
2022-11-09T23:59:13.847Z,98629.13
